createdAt,value
2018-08-04T00:02:25.782Z,60.03
2018-08-04T00:05:31.530Z,59.37
2018-08-04T00:08:37.022Z,60.30
2018-08-04T00:11:42.776Z,60.56
2018-08-04T00:14:48.818Z,60.04
2018-08-04T00:17:55.227Z,60.67
2018-08-04T00:21:01.346Z,60.85
2018-08-04T00:24:07.045Z,60.74
2018-08-04T00:27:14.203Z,60.84
2018-08-04T00:33:32.254Z,61.26
2018-08-04T00:36:38.685Z,61.25
2018-08-04T00:39:45.011Z,60.83
2018-08-04T00:42:50.688Z,61.34
2018-08-04T00:45:56.415Z,61.85
2018-08-04T00:49:03.997Z,61.35
2018-08-04T00:52:09.179Z,61.47
2018-08-04T00:55:15.258Z,62.27
2018-08-04T00:58:20.709Z,61.52
2018-08-04T01:01:26.904Z,62.38
2018-08-04T01:04:33.415Z,61.86
2018-08-04T01:07:39.468Z,63.16
2018-08-04T01:10:45.060Z,62.08
2018-08-04T01:13:49.872Z,62.62
2018-08-04T01:16:55.607Z,63.00
2018-08-04T01:20:03.669Z,63.01
2018-08-04T01:23:09.310Z,62.53
2018-08-04T01:26:16.161Z,63.02
2018-08-04T01:29:22.145Z,62.66
2018-08-04T01:32:28.241Z,63.51
2018-08-04T01:35:35.685Z,63.60
2018-08-04T01:38:41.486Z,63.50
2018-08-04T01:41:46.595Z,63.66
2018-08-04T01:44:52.043Z,64.08
2018-08-04T01:47:58.007Z,63.72
2018-08-04T01:51:03.881Z,63.46
2018-08-04T01:54:10.457Z,63.25
2018-08-04T01:57:16.522Z,63.50
2018-08-04T02:00:24.217Z,64.03
2018-08-04T02:03:30.442Z,63.92
2018-08-04T02:06:36.425Z,64.57
2018-08-04T02:09:41.548Z,64.42
2018-08-04T02:12:46.909Z,64.82
2018-08-04T02:15:52.755Z,64.38
2018-08-04T02:18:58.862Z,65.07
2018-08-04T02:22:04.712Z,64.53
2018-08-04T02:25:09.837Z,65.25
2018-08-04T02:28:15.268Z,64.66
2018-08-04T02:31:20.634Z,65.44
2018-08-04T02:34:27.109Z,65.22
2018-08-04T02:37:33.164Z,64.69
2018-08-04T02:40:39.118Z,64.90
2018-08-04T02:43:44.244Z,65.61
2018-08-04T02:46:49.695Z,65.79
2018-08-04T02:49:55.166Z,65.27
2018-08-04T02:53:00.345Z,65.49
2018-08-04T02:56:05.492Z,65.44
2018-08-04T02:59:10.629Z,65.84
2018-08-04T03:02:16.713Z,65.79
2018-08-04T03:05:22.689Z,65.58
2018-08-04T03:08:28.816Z,66.43
2018-08-04T03:11:36.069Z,65.83
2018-08-04T03:14:41.825Z,66.07
2018-08-04T03:17:48.814Z,66.74
2018-08-04T03:20:54.531Z,66.90
2018-08-04T03:23:59.901Z,67.07
2018-08-04T03:27:06.966Z,67.16
2018-08-04T03:30:13.189Z,67.10
2018-08-04T03:33:19.023Z,66.45
2018-08-04T03:36:24.162Z,66.53
2018-08-04T03:39:29.290Z,66.61
2018-08-04T03:42:34.473Z,66.32
2018-08-04T03:45:39.837Z,67.44
2018-08-04T03:48:51.507Z,67.11
2018-08-04T03:51:57.497Z,67.28
2018-08-04T03:55:03.345Z,66.95
2018-08-04T03:58:08.800Z,66.76
2018-08-04T04:01:14.661Z,67.11
2018-08-04T04:04:20.008Z,67.72
2018-08-04T04:07:25.159Z,67.16
2018-08-04T04:10:30.258Z,67.61
2018-08-04T04:13:35.730Z,67.83
2018-08-04T04:16:42.165Z,67.54
2018-08-04T04:19:49.147Z,67.17
2018-08-04T04:22:54.674Z,66.80
2018-08-04T04:25:59.825Z,67.33
2018-08-04T04:29:05.021Z,67.49
2018-08-04T04:32:10.173Z,67.32
2018-08-04T04:35:16.642Z,67.53
2018-08-04T04:38:22.581Z,67.41
2018-08-04T04:41:27.731Z,67.21
2018-08-04T04:44:34.005Z,67.08
2018-08-04T04:47:39.142Z,66.80
2018-08-04T04:50:44.281Z,67.55
2018-08-04T04:53:49.830Z,66.88
2018-08-04T04:56:55.326Z,67.08
2018-08-04T05:00:01.071Z,67.00
2018-08-04T05:03:07.505Z,66.51
2018-08-04T05:06:13.931Z,66.56
2018-08-04T05:09:19.950Z,66.62
2018-08-04T05:12:26.566Z,67.25
2018-08-04T05:15:32.754Z,67.15
2018-08-04T05:18:38.961Z,66.20
2018-08-04T05:21:44.118Z,66.08
2018-08-04T05:24:49.287Z,65.84
2018-08-04T05:27:55.007Z,66.62
2018-08-04T05:31:01.753Z,65.40
2018-08-04T05:34:07.711Z,65.74
2018-08-04T05:37:14.403Z,66.70
2018-08-04T05:40:20.481Z,66.08
2018-08-04T05:43:25.971Z,65.49
2018-08-04T05:46:31.234Z,65.54
2018-08-04T05:49:37.284Z,65.67
2018-08-04T05:52:43.017Z,64.90
2018-08-04T05:55:49.342Z,64.49
2018-08-04T05:58:55.098Z,65.37
2018-08-04T06:02:01.325Z,65.48
2018-08-04T06:05:07.437Z,65.38
2018-08-04T06:08:12.566Z,65.61
2018-08-04T06:11:18.209Z,65.24
2018-08-04T06:14:23.454Z,64.48
2018-08-04T06:17:30.824Z,64.44
2018-08-04T06:20:36.571Z,65.01
2018-08-04T06:23:42.641Z,64.90
2018-08-04T06:26:49.866Z,65.18
2018-08-04T06:29:55.854Z,65.20
2018-08-04T06:33:00.989Z,65.42
2018-08-04T06:36:06.193Z,64.57
2018-08-04T06:39:11.322Z,64.46
2018-08-04T06:42:16.477Z,64.40
2018-08-04T06:45:22.585Z,64.83
2018-08-04T06:48:28.367Z,64.98
2018-08-04T06:51:33.827Z,65.06
2018-08-04T06:54:40.661Z,64.51
2018-08-04T06:57:46.334Z,64.53
2018-08-04T07:00:51.813Z,64.56
2018-08-04T07:03:57.878Z,65.63
2018-08-04T07:07:04.358Z,65.71
2018-08-04T07:10:11.493Z,64.67
2018-08-04T07:13:18.205Z,64.56
2018-08-04T07:16:24.218Z,66.45
2018-08-04T07:19:30.062Z,65.44
2018-08-04T07:22:36.241Z,65.71
2018-08-04T07:25:42.219Z,66.58
2018-08-04T07:28:48.328Z,65.10
2018-08-04T07:31:55.698Z,64.77
2018-08-04T07:35:01.719Z,65.16
2018-08-04T07:38:06.976Z,65.02
2018-08-04T07:41:13.072Z,65.39
2018-08-04T07:44:18.545Z,65.15
2018-08-04T07:47:24.555Z,67.53
2018-08-04T07:50:29.970Z,66.13
2018-08-04T07:53:35.105Z,66.34
2018-08-04T07:56:41.887Z,65.45
2018-08-04T07:59:47.621Z,65.73
2018-08-04T08:02:52.839Z,65.71
2018-08-04T08:05:58.306Z,66.40
2018-08-04T08:09:04.969Z,66.35
2018-08-04T08:12:10.314Z,65.47
2018-08-04T08:15:15.406Z,65.66
2018-08-04T08:18:20.872Z,65.68
2018-08-04T08:21:26.722Z,65.68
2018-08-04T08:24:32.499Z,65.62
2018-08-04T08:27:38.195Z,65.80
2018-08-04T08:30:44.157Z,65.03
2018-08-04T08:33:51.619Z,65.99
2018-08-04T08:36:57.551Z,65.14
2018-08-04T08:40:03.297Z,65.17
2018-08-04T08:43:08.745Z,64.77
2018-08-04T08:46:14.952Z,65.34
2018-08-04T08:49:20.899Z,65.31
2018-08-04T08:52:26.397Z,64.86
2018-08-04T08:55:31.594Z,64.50
2018-08-04T08:58:36.400Z,64.44
2018-08-04T09:01:41.947Z,64.81
2018-08-04T09:04:47.383Z,64.38
2018-08-04T09:07:52.510Z,64.37
2018-08-04T09:10:58.204Z,64.81
2018-08-04T09:14:04.197Z,64.74
2018-08-04T09:17:10.069Z,64.19
2018-08-04T09:20:16.089Z,63.89
2018-08-04T09:23:21.288Z,64.53
2018-08-04T09:26:27.773Z,63.51
2018-08-04T09:29:33.374Z,63.20
2018-08-04T09:32:39.129Z,63.74
2018-08-04T09:35:44.578Z,63.01
2018-08-04T09:38:49.941Z,63.75
2018-08-04T09:41:55.981Z,62.28
2018-08-04T09:45:02.378Z,63.40
2018-08-04T09:48:09.492Z,62.12
2018-08-04T09:51:15.229Z,61.94
2018-08-04T09:54:20.357Z,61.87
2018-08-04T09:57:26.775Z,62.17
2018-08-04T10:00:38.113Z,60.88
2018-08-04T10:03:43.750Z,60.32
2018-08-04T10:06:48.568Z,61.22
2018-08-04T10:09:53.824Z,60.52
2018-08-04T10:13:00.199Z,59.77
2018-08-04T10:16:05.706Z,59.73
2018-08-04T10:19:10.879Z,60.31
2018-08-04T10:22:16.004Z,60.52
2018-08-04T10:25:21.443Z,60.54
2018-08-04T10:28:28.409Z,60.35
2018-08-04T10:31:34.325Z,59.90
2018-08-04T10:34:39.741Z,60.47
2018-08-04T10:37:44.889Z,59.08
2018-08-04T10:40:50.653Z,59.79
2018-08-04T10:43:56.637Z,59.38
2018-08-04T10:47:02.843Z,59.68
2018-08-04T10:50:08.854Z,59.79
2018-08-04T10:53:14.571Z,59.71
2018-08-04T10:56:20.320Z,59.55
2018-08-04T10:59:26.509Z,58.53
2018-08-04T11:02:33.546Z,58.64
2018-08-04T11:05:39.278Z,59.05
2018-08-04T11:08:44.461Z,58.36
2018-08-04T11:11:51.298Z,58.39
2018-08-04T11:14:57.072Z,57.61
2018-08-04T11:18:03.214Z,57.54
2018-08-04T11:21:09.242Z,58.48
2018-08-04T11:24:14.869Z,57.35
2018-08-04T11:27:21.018Z,57.89
2018-08-04T11:30:26.194Z,58.08
2018-08-04T11:33:32.138Z,57.98
2018-08-04T11:36:36.949Z,57.18
2018-08-04T11:39:42.759Z,57.43
2018-08-04T11:42:47.876Z,57.38
2018-08-04T11:45:53.344Z,57.32
2018-08-04T11:48:58.147Z,58.03
2018-08-04T11:52:03.756Z,56.57
2018-08-04T11:55:09.708Z,57.51
2018-08-04T11:58:15.440Z,56.46
2018-08-04T12:01:22.361Z,56.13
2018-08-04T12:04:29.505Z,56.25
2018-08-04T12:07:36.176Z,56.69
2018-08-04T12:10:42.351Z,55.66
2018-08-04T12:13:47.301Z,55.24
2018-08-04T12:16:52.419Z,55.01
2018-08-04T12:19:58.255Z,55.00
2018-08-04T12:23:03.930Z,55.23
2018-08-04T12:26:09.021Z,54.84
2018-08-04T12:29:14.927Z,54.99
2018-08-04T12:32:19.762Z,54.83
2018-08-04T12:35:26.364Z,54.15
2018-08-04T12:38:32.157Z,54.07
2018-08-04T12:41:37.436Z,53.68
2018-08-04T12:44:43.412Z,53.28
2018-08-04T12:47:48.250Z,53.40
2018-08-04T12:50:54.929Z,52.93
2018-08-04T12:53:59.785Z,52.91
2018-08-04T12:57:05.268Z,52.80
2018-08-04T13:00:10.496Z,54.40
2018-08-04T13:03:16.271Z,53.70
2018-08-04T13:06:22.723Z,53.79
2018-08-04T13:09:28.509Z,53.50
2018-08-04T13:12:34.513Z,52.41
2018-08-04T13:15:40.433Z,53.05
2018-08-04T13:18:45.258Z,52.95
2018-08-04T13:21:51.023Z,52.57
2018-08-04T13:24:56.963Z,52.11
2018-08-04T13:28:03.965Z,52.15
2018-08-04T13:31:09.218Z,52.26
2018-08-04T13:34:14.065Z,52.84
2018-08-04T13:37:20.748Z,52.41
2018-08-04T13:40:26.794Z,52.74
2018-08-04T13:43:32.615Z,51.86
2018-08-04T13:46:38.896Z,51.95
2018-08-04T13:49:44.550Z,51.95
2018-08-04T13:52:49.705Z,51.91
2018-08-04T13:55:54.556Z,51.18
2018-08-04T13:58:59.408Z,51.10
2018-08-04T14:02:04.463Z,50.89
2018-08-04T14:05:11.699Z,51.36
2018-08-04T14:08:17.146Z,51.53
2018-08-04T14:11:22.440Z,51.10
2018-08-04T14:14:28.276Z,50.72
2018-08-04T14:17:33.592Z,51.81
2018-08-04T14:20:38.553Z,50.72
2018-08-04T14:23:45.339Z,51.64
2018-08-04T14:26:51.314Z,50.38
2018-08-04T14:29:57.060Z,51.20
2018-08-04T14:33:03.833Z,51.70
2018-08-04T14:36:09.277Z,51.90
2018-08-04T14:39:14.527Z,51.31
2018-08-04T14:42:19.701Z,51.85
2018-08-04T14:45:25.621Z,51.09
2018-08-04T14:48:30.817Z,52.17
2018-08-04T14:51:36.011Z,52.27
2018-08-04T14:54:41.193Z,52.10
2018-08-04T14:57:47.294Z,52.62
2018-08-04T15:00:52.807Z,51.11
2018-08-04T15:03:57.656Z,51.46
2018-08-04T15:07:02.513Z,50.72
2018-08-04T15:10:08.206Z,51.49
2018-08-04T15:13:14.359Z,50.20
2018-08-04T15:16:21.089Z,51.76
2018-08-04T15:19:26.624Z,51.23
2018-08-04T15:22:31.818Z,50.66
2018-08-04T15:25:36.986Z,49.51
2018-08-04T15:28:43.158Z,49.67
2018-08-04T15:31:48.009Z,50.37
2018-08-04T15:34:53.633Z,50.03
2018-08-04T15:38:03.968Z,50.19
2018-08-04T15:41:09.921Z,50.80
2018-08-04T15:44:15.696Z,49.69
2018-08-04T15:47:20.864Z,50.55
2018-08-04T15:50:26.431Z,50.02
2018-08-04T15:53:32.335Z,49.86
2018-08-04T15:56:38.312Z,49.72
2018-08-04T15:59:43.233Z,50.15
2018-08-04T16:02:48.078Z,50.61
2018-08-04T16:05:52.906Z,49.90
2018-08-04T16:08:58.461Z,50.91
2018-08-04T16:12:03.335Z,49.63
2018-08-04T16:15:08.730Z,50.31
2018-08-04T16:18:13.573Z,50.49
2018-08-04T16:21:19.018Z,50.33
2018-08-04T16:24:28.052Z,49.36
2018-08-04T16:27:33.613Z,50.27
2018-08-04T16:30:39.371Z,50.11
2018-08-04T16:33:44.626Z,50.49
2018-08-04T16:36:50.226Z,49.29
2018-08-04T16:39:56.113Z,49.38
2018-08-04T16:43:00.970Z,49.02
2018-08-04T16:46:07.903Z,49.57
2018-08-04T16:49:13.382Z,49.60
2018-08-04T16:52:18.556Z,50.46
2018-08-04T16:55:24.350Z,49.66
2018-08-04T16:58:29.232Z,49.89
2018-08-04T17:01:34.965Z,49.86
2018-08-04T17:04:40.958Z,50.73
2018-08-04T17:07:46.709Z,50.22
2018-08-04T17:10:52.827Z,51.06
2018-08-04T17:13:57.673Z,50.39
2018-08-04T17:17:05.313Z,51.34
2018-08-04T17:20:10.777Z,51.41
2018-08-04T17:23:16.601Z,50.19
2018-08-04T17:26:22.013Z,51.29
2018-08-04T17:29:27.764Z,51.53
2018-08-04T17:32:34.365Z,50.55
2018-08-04T17:35:40.146Z,51.56
2018-08-04T17:38:46.260Z,50.53
2018-08-04T17:41:52.158Z,50.76
2018-08-04T17:44:58.282Z,50.81
2018-08-04T17:48:04.382Z,52.02
2018-08-04T17:51:10.511Z,52.39
2018-08-04T17:54:16.313Z,51.59
2018-08-04T17:57:21.541Z,52.14
2018-08-04T18:00:27.702Z,52.04
2018-08-04T18:03:34.501Z,52.26
2018-08-04T18:06:40.201Z,52.43
2018-08-04T18:09:45.118Z,52.67
2018-08-04T18:12:49.978Z,52.94
2018-08-04T18:15:54.862Z,52.38
2018-08-04T18:18:59.753Z,52.17
2018-08-04T18:22:04.996Z,52.26
2018-08-04T18:25:10.896Z,52.68
2018-08-04T18:28:16.655Z,52.77
2018-08-04T18:31:21.841Z,53.89
2018-08-04T18:34:27.234Z,53.07
2018-08-04T18:37:33.862Z,53.92
2018-08-04T18:40:40.882Z,53.95
2018-08-04T18:43:46.710Z,53.46
2018-08-04T18:46:52.340Z,53.98
2018-08-04T18:49:58.025Z,53.52
2018-08-04T18:53:03.287Z,53.74
2018-08-04T18:56:09.282Z,55.02
2018-08-04T18:59:15.901Z,54.19
2018-08-04T19:02:21.917Z,54.38
2018-08-04T19:05:28.333Z,54.87
2018-08-04T19:08:33.289Z,53.74
2018-08-04T19:11:38.948Z,54.54
2018-08-04T19:14:44.881Z,53.75
2018-08-04T19:17:50.085Z,53.78
2018-08-04T19:20:57.101Z,54.54
2018-08-04T19:24:02.861Z,54.69
2018-08-04T19:27:09.622Z,54.70
2018-08-04T19:30:15.277Z,54.50
2018-08-04T19:33:20.518Z,54.31
2018-08-04T19:36:26.290Z,54.37
2018-08-04T19:39:32.029Z,55.03
2018-08-04T19:42:36.911Z,54.23
2018-08-04T19:45:42.115Z,54.61
2018-08-04T19:48:49.193Z,55.55
2018-08-04T19:51:54.369Z,55.75
2018-08-04T19:55:01.187Z,55.01
2018-08-04T19:58:08.073Z,55.30
2018-08-04T20:01:13.870Z,55.93
2018-08-04T20:04:19.694Z,55.34
2018-08-04T20:07:24.606Z,55.20
2018-08-04T20:10:29.977Z,56.26
2018-08-04T20:13:34.827Z,56.03
2018-08-04T20:16:40.781Z,56.20
2018-08-04T20:19:45.621Z,57.00
2018-08-04T20:22:50.481Z,57.50
2018-08-04T20:25:55.764Z,58.01
2018-08-04T20:29:01.560Z,57.71
2018-08-04T20:32:08.135Z,58.20
2018-08-04T20:35:13.026Z,58.03
2018-08-04T20:38:18.814Z,58.21
2018-08-04T20:41:23.657Z,57.30
2018-08-04T20:44:29.249Z,57.88
2018-08-04T20:47:35.260Z,57.89
2018-08-04T20:50:40.133Z,58.88
2018-08-04T20:53:45.697Z,58.41
2018-08-04T20:56:50.866Z,58.42
2018-08-04T20:59:56.660Z,58.34
2018-08-04T21:03:02.425Z,58.77
2018-08-04T21:06:08.332Z,59.72
2018-08-04T21:09:13.152Z,59.62
2018-08-04T21:12:19.944Z,59.43
2018-08-04T21:15:26.637Z,59.64
2018-08-04T21:18:32.507Z,59.58
2018-08-04T21:21:37.366Z,59.97
2018-08-04T21:24:43.221Z,59.84
2018-08-04T21:27:50.083Z,60.42
2018-08-04T21:30:56.023Z,60.05
2018-08-04T21:34:01.827Z,60.98
2018-08-04T21:37:06.709Z,61.17
2018-08-04T21:40:12.333Z,61.07
2018-08-04T21:43:17.627Z,60.98
2018-08-04T21:46:22.781Z,60.54
2018-08-04T21:49:27.989Z,60.61
2018-08-04T21:52:33.873Z,61.67
2018-08-04T21:55:38.709Z,60.72
2018-08-04T21:58:45.437Z,61.57
2018-08-04T22:01:53.824Z,61.06
2018-08-04T22:04:59.803Z,61.48
2018-08-04T22:08:16.331Z,62.19
2018-08-04T22:11:22.509Z,62.65
2018-08-04T22:14:27.731Z,62.14
2018-08-04T22:17:32.881Z,62.40
2018-08-04T22:20:39.032Z,62.88
2018-08-04T22:23:43.885Z,62.84
2018-08-04T22:26:50.554Z,62.50
2018-08-04T22:29:56.893Z,62.62
2018-08-04T22:33:02.873Z,63.04
2018-08-04T22:36:08.642Z,63.46
2018-08-04T22:39:13.893Z,63.03
2018-08-04T22:42:20.681Z,62.86
2018-08-04T22:46:04.154Z,63.47
2018-08-04T22:49:09.014Z,63.70
2018-08-04T22:52:14.307Z,63.82
2018-08-04T22:55:21.076Z,63.53
2018-08-04T22:58:27.874Z,64.05
2018-08-04T23:01:33.343Z,64.64
2018-08-04T23:04:38.502Z,64.10
2018-08-04T23:07:44.282Z,64.36
2018-08-04T23:10:49.802Z,64.31
2018-08-04T23:13:55.547Z,64.75
2018-08-04T23:17:00.397Z,65.37
2018-08-04T23:20:05.863Z,65.38
2018-08-04T23:23:12.031Z,64.84
2018-08-04T23:26:16.951Z,65.07
2018-08-04T23:29:22.325Z,64.83
2018-08-04T23:32:27.960Z,64.80
2018-08-04T23:35:32.910Z,65.77
2018-08-04T23:38:37.818Z,66.46
2018-08-04T23:41:42.974Z,66.08
2018-08-04T23:44:49.016Z,67.38
2018-08-04T23:47:54.832Z,66.33
2018-08-04T23:51:00.728Z,66.51
2018-08-04T23:54:06.561Z,67.03
2018-08-04T23:57:11.396Z,65.91
